Terminal Aerodrome Forecast
Issued by NWS

Home | Current Version | Previous Version | Text Only | Print | Product List | Glossary On
Versions: 1 2 3 4 5 6 7 8 9 10 11 12 13 14 15 16 17 18 19 20 21 22 23 24
000
FTUS45 KBOU 130540
TAFAPA
TAF
KAPA 130540Z 1306/1406 01014G24KT P6SM VCSH SCT090 BKN150
     FM130800 04014G22KT P6SM VCSH SCT040 OVC060
      TEMPO 1308/1312 -SHRA
     FM131200 03010G18KT 5SM -SHRASN BKN020 OVC035
     FM131400 03013KT 3SM -SN BR OVC015
     FM131700 02014G24KT 2SM -SN BR OVC008
      TEMPO 1318/1322 1/2SM SN OVC002
     FM132200 02014KT 3/4SM -SN BR OVC004
     FM140500 33010KT 5SM -SN BR BKN015=

USA.gov is the U.S. government's official web portal to all federal, state and local government web resources and services.